sensor_id;sensor_type;location;lat;lon;timestamp;P1;durP1;ratioP1;P2;durP2;ratioP2
7669;SDS011;3877;42.562;27.636;2023-01-16T00:00:20;11.43;;;6.27;;
7669;SDS011;3877;42.562;27.636;2023-01-16T00:02:47;8.97;;;5.50;;
7669;SDS011;3877;42.562;27.636;2023-01-16T00:05:14;9.07;;;6.67;;
7669;SDS011;3877;42.562;27.636;2023-01-16T00:07:42;10.93;;;5.80;;
7669;SDS011;3877;42.562;27.636;2023-01-16T00:10:09;9.07;;;5.63;;
7669;SDS011;3877;42.562;27.636;2023-01-16T00:12:37;7.73;;;5.60;;
7669;SDS011;3877;42.562;27.636;2023-01-16T00:15:04;11.00;;;5.70;;
7669;SDS011;3877;42.562;27.636;2023-01-16T00:17:31;11.40;;;8.40;;
7669;SDS011;3877;42.562;27.636;2023-01-16T00:19:58;12.23;;;8.63;;
7669;SDS011;3877;42.562;27.636;2023-01-16T00:22:25;26.27;;;19.33;;
7669;SDS011;3877;42.562;27.636;2023-01-16T00:24:53;28.50;;;22.13;;
7669;SDS011;3877;42.562;27.636;2023-01-16T00:27:20;19.47;;;14.90;;
7669;SDS011;3877;42.562;27.636;2023-01-16T00:29:46;31.90;;;23.20;;
7669;SDS011;3877;42.562;27.636;2023-01-16T00:32:13;25.00;;;20.63;;
7669;SDS011;3877;42.562;27.636;2023-01-16T00:34:40;25.07;;;21.37;;
7669;SDS011;3877;42.562;27.636;2023-01-16T00:37:07;29.00;;;22.23;;
7669;SDS011;3877;42.562;27.636;2023-01-16T00:39:34;24.70;;;19.27;;
7669;SDS011;3877;42.562;27.636;2023-01-16T00:42:05;15.50;;;10.60;;
7669;SDS011;3877;42.562;27.636;2023-01-16T00:44:32;12.33;;;8.40;;
7669;SDS011;3877;42.562;27.636;2023-01-16T00:46:58;11.80;;;8.90;;
7669;SDS011;3877;42.562;27.636;2023-01-16T00:49:25;12.50;;;9.50;;
7669;SDS011;3877;42.562;27.636;2023-01-16T00:51:52;11.70;;;8.40;;
7669;SDS011;3877;42.562;27.636;2023-01-16T00:54:19;9.30;;;6.37;;
7669;SDS011;3877;42.562;27.636;2023-01-16T00:56:46;8.37;;;5.90;;
7669;SDS011;3877;42.562;27.636;2023-01-16T00:59:14;7.07;;;5.70;;
7669;SDS011;3877;42.562;27.636;2023-01-16T01:01:41;11.00;;;6.40;;
7669;SDS011;3877;42.562;27.636;2023-01-16T01:04:08;11.13;;;7.53;;
7669;SDS011;3877;42.562;27.636;2023-01-16T01:06:37;9.10;;;6.90;;
7669;SDS011;3877;42.562;27.636;2023-01-16T01:09:04;7.30;;;6.03;;
7669;SDS011;3877;42.562;27.636;2023-01-16T01:11:30;9.70;;;6.30;;
7669;SDS011;3877;42.562;27.636;2023-01-16T01:13:57;7.40;;;5.90;;
7669;SDS011;3877;42.562;27.636;2023-01-16T01:16:26;8.50;;;5.70;;
7669;SDS011;3877;42.562;27.636;2023-01-16T01:18:53;8.20;;;5.07;;
7669;SDS011;3877;42.562;27.636;2023-01-16T01:21:19;7.27;;;4.17;;
7669;SDS011;3877;42.562;27.636;2023-01-16T01:23:46;6.83;;;5.47;;
7669;SDS011;3877;42.562;27.636;2023-01-16T01:26:15;8.80;;;5.80;;
7669;SDS011;3877;42.562;27.636;2023-01-16T01:28:42;8.43;;;6.03;;
7669;SDS011;3877;42.562;27.636;2023-01-16T01:31:10;7.90;;;5.70;;
7669;SDS011;3877;42.562;27.636;2023-01-16T01:33:39;8.60;;;6.00;;
7669;SDS011;3877;42.562;27.636;2023-01-16T01:36:06;6.60;;;4.70;;
7669;SDS011;3877;42.562;27.636;2023-01-16T01:38:33;6.80;;;3.57;;
7669;SDS011;3877;42.562;27.636;2023-01-16T01:41:00;5.00;;;3.60;;
7669;SDS011;3877;42.562;27.636;2023-01-16T01:43:40;3.70;;;3.30;;
7669;SDS011;3877;42.562;27.636;2023-01-16T01:46:07;4.50;;;3.07;;
7669;SDS011;3877;42.562;27.636;2023-01-16T01:48:41;4.50;;;3.20;;
7669;SDS011;3877;42.562;27.636;2023-01-16T01:51:09;3.30;;;2.90;;
7669;SDS011;3877;42.562;27.636;2023-01-16T01:53:37;4.47;;;2.90;;
7669;SDS011;3877;42.562;27.636;2023-01-16T01:56:06;3.43;;;2.97;;
7669;SDS011;3877;42.562;27.636;2023-01-16T01:58:34;4.33;;;3.03;;
7669;SDS011;3877;42.562;27.636;2023-01-16T02:01:02;4.47;;;3.40;;
7669;SDS011;3877;42.562;27.636;2023-01-16T02:03:31;6.67;;;3.80;;
7669;SDS011;3877;42.562;27.636;2023-01-16T02:06:02;6.87;;;4.33;;
7669;SDS011;3877;42.562;27.636;2023-01-16T02:08:32;7.63;;;5.67;;
7669;SDS011;3877;42.562;27.636;2023-01-16T02:11:00;10.97;;;7.07;;
7669;SDS011;3877;42.562;27.636;2023-01-16T02:13:29;11.67;;;7.90;;
7669;SDS011;3877;42.562;27.636;2023-01-16T02:15:56;15.27;;;9.57;;
7669;SDS011;3877;42.562;27.636;2023-01-16T02:18:40;16.17;;;9.97;;
7669;SDS011;3877;42.562;27.636;2023-01-16T02:21:36;16.03;;;11.30;;
7669;SDS011;3877;42.562;27.636;2023-01-16T02:24:15;17.03;;;11.80;;
7669;SDS011;3877;42.562;27.636;2023-01-16T02:26:56;15.83;;;12.10;;
7669;SDS011;3877;42.562;27.636;2023-01-16T02:32:15;14.53;;;10.10;;
7669;SDS011;3877;42.562;27.636;2023-01-16T02:34:50;12.97;;;9.47;;
7669;SDS011;3877;42.562;27.636;2023-01-16T02:37:23;14.70;;;10.23;;
7669;SDS011;3877;42.562;27.636;2023-01-16T02:39:53;15.77;;;10.97;;
7669;SDS011;3877;42.562;27.636;2023-01-16T02:42:24;13.60;;;9.53;;
7669;SDS011;3877;42.562;27.636;2023-01-16T02:44:55;12.27;;;7.83;;
7669;SDS011;3877;42.562;27.636;2023-01-16T02:47:35;17.10;;;8.73;;
7669;SDS011;3877;42.562;27.636;2023-01-16T02:50:08;12.17;;;8.57;;
7669;SDS011;3877;42.562;27.636;2023-01-16T02:52:39;13.53;;;8.17;;
7669;SDS011;3877;42.562;27.636;2023-01-16T02:55:08;11.33;;;7.80;;
7669;SDS011;3877;42.562;27.636;2023-01-16T02:57:37;12.37;;;8.23;;
7669;SDS011;3877;42.562;27.636;2023-01-16T03:00:05;11.77;;;8.40;;
7669;SDS011;3877;42.562;27.636;2023-01-16T03:02:34;12.90;;;8.07;;
7669;SDS011;3877;42.562;27.636;2023-01-16T03:05:01;12.87;;;8.00;;
7669;SDS011;3877;42.562;27.636;2023-01-16T03:10:25;10.97;;;7.60;;
7669;SDS011;3877;42.562;27.636;2023-01-16T03:12:58;12.90;;;7.90;;
7669;SDS011;3877;42.562;27.636;2023-01-16T03:15:30;10.77;;;7.30;;
7669;SDS011;3877;42.562;27.636;2023-01-16T03:18:04;11.37;;;7.60;;
7669;SDS011;3877;42.562;27.636;2023-01-16T03:20:34;13.83;;;8.03;;
7669;SDS011;3877;42.562;27.636;2023-01-16T03:23:07;13.57;;;8.77;;
7669;SDS011;3877;42.562;27.636;2023-01-16T03:25:35;12.87;;;8.73;;
7669;SDS011;3877;42.562;27.636;2023-01-16T03:28:07;13.10;;;8.67;;
7669;SDS011;3877;42.562;27.636;2023-01-16T03:30:37;15.80;;;8.90;;
7669;SDS011;3877;42.562;27.636;2023-01-16T03:33:13;13.30;;;9.10;;
7669;SDS011;3877;42.562;27.636;2023-01-16T03:35:42;15.17;;;10.10;;
7669;SDS011;3877;42.562;27.636;2023-01-16T03:38:13;15.00;;;10.10;;
7669;SDS011;3877;42.562;27.636;2023-01-16T03:40:44;16.87;;;10.70;;
7669;SDS011;3877;42.562;27.636;2023-01-16T03:43:13;21.30;;;12.60;;
7669;SDS011;3877;42.562;27.636;2023-01-16T03:45:42;18.93;;;13.03;;
7669;SDS011;3877;42.562;27.636;2023-01-16T03:48:10;17.97;;;11.57;;
7669;SDS011;3877;42.562;27.636;2023-01-16T03:50:40;17.33;;;11.50;;
7669;SDS011;3877;42.562;27.636;2023-01-16T03:53:10;18.17;;;11.87;;
7669;SDS011;3877;42.562;27.636;2023-01-16T03:55:39;20.00;;;12.70;;
7669;SDS011;3877;42.562;27.636;2023-01-16T03:58:09;19.23;;;10.93;;
7669;SDS011;3877;42.562;27.636;2023-01-16T04:00:39;16.73;;;11.87;;
7669;SDS011;3877;42.562;27.636;2023-01-16T04:03:10;14.60;;;10.30;;
7669;SDS011;3877;42.562;27.636;2023-01-16T04:05:44;16.20;;;10.30;;
7669;SDS011;3877;42.562;27.636;2023-01-16T04:08:14;14.93;;;10.90;;
7669;SDS011;3877;42.562;27.636;2023-01-16T04:10:43;15.83;;;10.57;;
7669;SDS011;3877;42.562;27.636;2023-01-16T04:13:12;16.80;;;11.67;;
7669;SDS011;3877;42.562;27.636;2023-01-16T04:15:41;20.73;;;11.30;;
7669;SDS011;3877;42.562;27.636;2023-01-16T04:18:09;16.77;;;10.83;;
7669;SDS011;3877;42.562;27.636;2023-01-16T04:20:36;136.63;;;16.63;;
7669;SDS011;3877;42.562;27.636;2023-01-16T04:23:06;18.20;;;11.80;;
7669;SDS011;3877;42.562;27.636;2023-01-16T04:25:33;19.07;;;12.07;;
7669;SDS011;3877;42.562;27.636;2023-01-16T04:28:00;20.53;;;12.27;;
7669;SDS011;3877;42.562;27.636;2023-01-16T04:30:26;18.77;;;12.70;;
7669;SDS011;3877;42.562;27.636;2023-01-16T04:32:53;19.13;;;12.60;;
7669;SDS011;3877;42.562;27.636;2023-01-16T04:35:20;19.60;;;12.87;;
7669;SDS011;3877;42.562;27.636;2023-01-16T04:37:47;19.77;;;13.23;;
7669;SDS011;3877;42.562;27.636;2023-01-16T04:40:16;20.33;;;13.43;;
7669;SDS011;3877;42.562;27.636;2023-01-16T04:42:42;19.67;;;12.83;;
7669;SDS011;3877;42.562;27.636;2023-01-16T04:45:09;21.27;;;12.93;;
7669;SDS011;3877;42.562;27.636;2023-01-16T04:47:36;23.30;;;14.20;;
7669;SDS011;3877;42.562;27.636;2023-01-16T04:50:04;23.27;;;13.53;;
7669;SDS011;3877;42.562;27.636;2023-01-16T04:52:31;21.57;;;12.93;;
7669;SDS011;3877;42.562;27.636;2023-01-16T04:54:57;21.80;;;14.10;;
7669;SDS011;3877;42.562;27.636;2023-01-16T04:57:26;19.50;;;12.83;;
7669;SDS011;3877;42.562;27.636;2023-01-16T04:59:52;23.07;;;14.23;;
7669;SDS011;3877;42.562;27.636;2023-01-16T05:02:19;21.67;;;13.93;;
7669;SDS011;3877;42.562;27.636;2023-01-16T05:04:46;31.73;;;20.73;;
7669;SDS011;3877;42.562;27.636;2023-01-16T05:07:13;24.97;;;15.53;;
7669;SDS011;3877;42.562;27.636;2023-01-16T05:09:40;28.07;;;16.87;;
7669;SDS011;3877;42.562;27.636;2023-01-16T05:12:07;30.47;;;16.57;;
7669;SDS011;3877;42.562;27.636;2023-01-16T05:14:35;31.93;;;18.63;;
7669;SDS011;3877;42.562;27.636;2023-01-16T05:17:02;32.27;;;17.27;;
7669;SDS011;3877;42.562;27.636;2023-01-16T05:19:29;58.77;;;28.13;;
7669;SDS011;3877;42.562;27.636;2023-01-16T05:21:55;30.03;;;18.43;;
7669;SDS011;3877;42.562;27.636;2023-01-16T05:24:22;34.23;;;20.63;;
7669;SDS011;3877;42.562;27.636;2023-01-16T05:26:49;28.83;;;17.07;;
7669;SDS011;3877;42.562;27.636;2023-01-16T05:29:16;35.93;;;20.73;;
7669;SDS011;3877;42.562;27.636;2023-01-16T05:31:44;31.40;;;19.13;;
7669;SDS011;3877;42.562;27.636;2023-01-16T05:34:11;35.23;;;21.70;;
7669;SDS011;3877;42.562;27.636;2023-01-16T05:36:38;27.50;;;17.63;;
7669;SDS011;3877;42.562;27.636;2023-01-16T05:39:05;28.43;;;17.70;;
7669;SDS011;3877;42.562;27.636;2023-01-16T05:41:31;33.10;;;20.97;;
7669;SDS011;3877;42.562;27.636;2023-01-16T05:43:58;32.50;;;17.77;;
7669;SDS011;3877;42.562;27.636;2023-01-16T05:46:25;32.73;;;20.07;;
7669;SDS011;3877;42.562;27.636;2023-01-16T05:48:53;32.63;;;20.10;;
7669;SDS011;3877;42.562;27.636;2023-01-16T05:51:20;29.50;;;17.07;;
7669;SDS011;3877;42.562;27.636;2023-01-16T05:53:48;34.00;;;19.87;;
7669;SDS011;3877;42.562;27.636;2023-01-16T05:56:15;28.07;;;18.20;;
7669;SDS011;3877;42.562;27.636;2023-01-16T05:58:43;29.53;;;18.13;;
7669;SDS011;3877;42.562;27.636;2023-01-16T06:01:10;31.57;;;18.40;;
7669;SDS011;3877;42.562;27.636;2023-01-16T06:03:37;34.33;;;18.93;;
7669;SDS011;3877;42.562;27.636;2023-01-16T06:06:05;33.27;;;19.17;;
7669;SDS011;3877;42.562;27.636;2023-01-16T06:11:35;26.27;;;16.77;;
7669;SDS011;3877;42.562;27.636;2023-01-16T06:14:02;29.10;;;18.87;;
7669;SDS011;3877;42.562;27.636;2023-01-16T06:16:29;34.77;;;19.23;;
7669;SDS011;3877;42.562;27.636;2023-01-16T06:18:57;30.10;;;18.63;;
7669;SDS011;3877;42.562;27.636;2023-01-16T06:21:25;27.20;;;18.17;;
7669;SDS011;3877;42.562;27.636;2023-01-16T06:23:52;30.03;;;19.10;;
7669;SDS011;3877;42.562;27.636;2023-01-16T06:26:18;28.83;;;18.30;;
7669;SDS011;3877;42.562;27.636;2023-01-16T06:28:45;27.50;;;17.73;;
7669;SDS011;3877;42.562;27.636;2023-01-16T06:31:12;30.07;;;19.70;;
7669;SDS011;3877;42.562;27.636;2023-01-16T06:33:39;31.17;;;19.20;;
7669;SDS011;3877;42.562;27.636;2023-01-16T06:36:06;35.77;;;18.87;;
7669;SDS011;3877;42.562;27.636;2023-01-16T06:38:34;40.43;;;24.80;;
7669;SDS011;3877;42.562;27.636;2023-01-16T06:41:01;33.73;;;20.63;;
7669;SDS011;3877;42.562;27.636;2023-01-16T06:43:28;33.13;;;20.63;;
7669;SDS011;3877;42.562;27.636;2023-01-16T06:45:55;32.97;;;19.93;;
7669;SDS011;3877;42.562;27.636;2023-01-16T06:48:22;35.90;;;22.93;;
7669;SDS011;3877;42.562;27.636;2023-01-16T06:50:49;34.83;;;19.73;;
7669;SDS011;3877;42.562;27.636;2023-01-16T06:53:16;32.93;;;19.87;;
7669;SDS011;3877;42.562;27.636;2023-01-16T06:55:44;32.03;;;21.27;;
7669;SDS011;3877;42.562;27.636;2023-01-16T06:58:11;35.23;;;21.70;;
7669;SDS011;3877;42.562;27.636;2023-01-16T07:00:38;34.67;;;19.63;;
7669;SDS011;3877;42.562;27.636;2023-01-16T07:03:04;39.10;;;24.47;;
7669;SDS011;3877;42.562;27.636;2023-01-16T07:05:31;37.80;;;24.57;;
7669;SDS011;3877;42.562;27.636;2023-01-16T07:07:58;47.80;;;25.37;;
7669;SDS011;3877;42.562;27.636;2023-01-16T07:10:25;33.90;;;21.60;;
7669;SDS011;3877;42.562;27.636;2023-01-16T07:12:54;33.00;;;21.13;;
7669;SDS011;3877;42.562;27.636;2023-01-16T07:18:23;35.20;;;22.77;;
7669;SDS011;3877;42.562;27.636;2023-01-16T07:21:08;33.40;;;20.93;;
7669;SDS011;3877;42.562;27.636;2023-01-16T07:23:55;33.53;;;21.93;;
7669;SDS011;3877;42.562;27.636;2023-01-16T07:26:22;36.57;;;21.60;;
7669;SDS011;3877;42.562;27.636;2023-01-16T07:28:51;32.37;;;20.20;;
7669;SDS011;3877;42.562;27.636;2023-01-16T07:31:18;35.67;;;22.07;;
7669;SDS011;3877;42.562;27.636;2023-01-16T07:33:46;36.50;;;22.43;;
7669;SDS011;3877;42.562;27.636;2023-01-16T07:36:12;33.23;;;21.07;;
7669;SDS011;3877;42.562;27.636;2023-01-16T07:38:39;32.33;;;20.53;;
7669;SDS011;3877;42.562;27.636;2023-01-16T07:41:06;31.97;;;20.30;;
7669;SDS011;3877;42.562;27.636;2023-01-16T07:43:33;40.63;;;28.83;;
7669;SDS011;3877;42.562;27.636;2023-01-16T07:46:01;30.83;;;20.33;;
7669;SDS011;3877;42.562;27.636;2023-01-16T07:48:28;26.53;;;18.67;;
7669;SDS011;3877;42.562;27.636;2023-01-16T07:50:55;29.63;;;20.13;;
7669;SDS011;3877;42.562;27.636;2023-01-16T07:53:23;31.63;;;18.90;;
7669;SDS011;3877;42.562;27.636;2023-01-16T07:55:50;41.33;;;24.60;;
7669;SDS011;3877;42.562;27.636;2023-01-16T07:58:20;58.43;;;36.50;;
7669;SDS011;3877;42.562;27.636;2023-01-16T08:00:49;39.07;;;26.37;;
7669;SDS011;3877;42.562;27.636;2023-01-16T08:03:17;46.53;;;29.90;;
7669;SDS011;3877;42.562;27.636;2023-01-16T08:05:44;34.40;;;21.03;;
7669;SDS011;3877;42.562;27.636;2023-01-16T08:08:13;28.80;;;18.20;;
7669;SDS011;3877;42.562;27.636;2023-01-16T08:10:40;52.03;;;33.77;;
7669;SDS011;3877;42.562;27.636;2023-01-16T08:13:07;50.20;;;32.53;;
7669;SDS011;3877;42.562;27.636;2023-01-16T08:15:34;32.43;;;21.90;;
7669;SDS011;3877;42.562;27.636;2023-01-16T08:18:00;31.60;;;21.27;;
7669;SDS011;3877;42.562;27.636;2023-01-16T08:20:29;39.40;;;28.07;;
7669;SDS011;3877;42.562;27.636;2023-01-16T08:22:55;27.33;;;17.57;;
7669;SDS011;3877;42.562;27.636;2023-01-16T08:25:23;39.80;;;22.47;;
7669;SDS011;3877;42.562;27.636;2023-01-16T08:27:50;25.17;;;18.07;;
7669;SDS011;3877;42.562;27.636;2023-01-16T08:30:17;24.80;;;15.60;;
7669;SDS011;3877;42.562;27.636;2023-01-16T08:32:44;25.33;;;15.37;;
7669;SDS011;3877;42.562;27.636;2023-01-16T08:35:11;34.47;;;22.33;;
7669;SDS011;3877;42.562;27.636;2023-01-16T08:37:43;21.63;;;15.17;;
7669;SDS011;3877;42.562;27.636;2023-01-16T08:40:13;34.03;;;17.57;;
7669;SDS011;3877;42.562;27.636;2023-01-16T08:42:40;21.50;;;14.57;;
7669;SDS011;3877;42.562;27.636;2023-01-16T08:45:24;20.17;;;13.87;;
7669;SDS011;3877;42.562;27.636;2023-01-16T08:48:09;20.83;;;13.87;;
7669;SDS011;3877;42.562;27.636;2023-01-16T08:50:54;20.10;;;14.63;;
7669;SDS011;3877;42.562;27.636;2023-01-16T08:53:41;22.97;;;13.70;;
7669;SDS011;3877;42.562;27.636;2023-01-16T08:56:08;24.77;;;15.20;;
7669;SDS011;3877;42.562;27.636;2023-01-16T08:58:34;24.70;;;14.77;;
7669;SDS011;3877;42.562;27.636;2023-01-16T09:01:01;23.13;;;12.87;;
7669;SDS011;3877;42.562;27.636;2023-01-16T09:03:28;30.53;;;16.60;;
7669;SDS011;3877;42.562;27.636;2023-01-16T09:05:55;36.70;;;21.17;;
7669;SDS011;3877;42.562;27.636;2023-01-16T09:08:22;39.77;;;21.40;;
7669;SDS011;3877;42.562;27.636;2023-01-16T09:10:50;30.57;;;14.47;;
7669;SDS011;3877;42.562;27.636;2023-01-16T09:13:31;18.90;;;10.03;;
7669;SDS011;3877;42.562;27.636;2023-01-16T09:16:16;16.67;;;10.10;;
7669;SDS011;3877;42.562;27.636;2023-01-16T09:18:43;19.00;;;11.50;;
7669;SDS011;3877;42.562;27.636;2023-01-16T09:21:09;19.33;;;11.20;;
7669;SDS011;3877;42.562;27.636;2023-01-16T09:23:36;15.70;;;10.10;;
7669;SDS011;3877;42.562;27.636;2023-01-16T09:26:04;18.00;;;9.93;;
7669;SDS011;3877;42.562;27.636;2023-01-16T09:28:31;15.50;;;10.53;;
7669;SDS011;3877;42.562;27.636;2023-01-16T09:30:58;25.53;;;13.60;;
7669;SDS011;3877;42.562;27.636;2023-01-16T09:33:25;17.73;;;11.53;;
7669;SDS011;3877;42.562;27.636;2023-01-16T09:35:52;16.30;;;11.43;;
7669;SDS011;3877;42.562;27.636;2023-01-16T09:38:19;20.90;;;12.63;;
7669;SDS011;3877;42.562;27.636;2023-01-16T09:40:46;21.90;;;14.20;;
7669;SDS011;3877;42.562;27.636;2023-01-16T09:43:20;19.17;;;10.90;;
7669;SDS011;3877;42.562;27.636;2023-01-16T09:46:04;23.67;;;16.20;;
7669;SDS011;3877;42.562;27.636;2023-01-16T09:48:31;15.67;;;9.50;;
7669;SDS011;3877;42.562;27.636;2023-01-16T09:50:59;33.70;;;23.53;;
7669;SDS011;3877;42.562;27.636;2023-01-16T09:53:32;14.37;;;8.50;;
7669;SDS011;3877;42.562;27.636;2023-01-16T09:56:17;11.73;;;7.47;;
7669;SDS011;3877;42.562;27.636;2023-01-16T09:59:07;15.63;;;8.20;;
7669;SDS011;3877;42.562;27.636;2023-01-16T10:01:39;14.00;;;9.50;;
7669;SDS011;3877;42.562;27.636;2023-01-16T10:04:10;12.67;;;9.50;;
7669;SDS011;3877;42.562;27.636;2023-01-16T10:06:40;20.57;;;10.60;;
7669;SDS011;3877;42.562;27.636;2023-01-16T10:09:09;12.60;;;7.87;;
7669;SDS011;3877;42.562;27.636;2023-01-16T10:11:40;13.23;;;8.50;;
7669;SDS011;3877;42.562;27.636;2023-01-16T10:14:20;11.60;;;7.93;;
7669;SDS011;3877;42.562;27.636;2023-01-16T10:16:51;16.07;;;9.27;;
7669;SDS011;3877;42.562;27.636;2023-01-16T10:19:25;20.77;;;8.80;;
7669;SDS011;3877;42.562;27.636;2023-01-16T10:22:04;18.60;;;12.97;;
7669;SDS011;3877;42.562;27.636;2023-01-16T10:24:37;22.83;;;11.83;;
7669;SDS011;3877;42.562;27.636;2023-01-16T10:27:07;10.67;;;7.60;;
7669;SDS011;3877;42.562;27.636;2023-01-16T10:29:38;11.77;;;7.87;;
7669;SDS011;3877;42.562;27.636;2023-01-16T10:32:08;9.80;;;7.40;;
7669;SDS011;3877;42.562;27.636;2023-01-16T10:34:37;13.70;;;9.10;;
7669;SDS011;3877;42.562;27.636;2023-01-16T10:37:05;12.83;;;9.27;;
7669;SDS011;3877;42.562;27.636;2023-01-16T10:39:33;12.63;;;8.80;;
7669;SDS011;3877;42.562;27.636;2023-01-16T10:42:08;17.83;;;9.43;;
7669;SDS011;3877;42.562;27.636;2023-01-16T10:44:56;12.37;;;8.13;;
7669;SDS011;3877;42.562;27.636;2023-01-16T10:47:41;16.10;;;9.17;;
7669;SDS011;3877;42.562;27.636;2023-01-16T10:50:26;12.67;;;8.90;;
7669;SDS011;3877;42.562;27.636;2023-01-16T10:52:53;16.97;;;8.13;;
7669;SDS011;3877;42.562;27.636;2023-01-16T10:55:20;17.80;;;8.07;;
7669;SDS011;3877;42.562;27.636;2023-01-16T10:57:47;13.43;;;7.90;;
7669;SDS011;3877;42.562;27.636;2023-01-16T11:00:18;15.77;;;7.90;;
7669;SDS011;3877;42.562;27.636;2023-01-16T11:02:46;19.97;;;9.17;;
7669;SDS011;3877;42.562;27.636;2023-01-16T11:05:23;19.30;;;9.80;;
7669;SDS011;3877;42.562;27.636;2023-01-16T11:07:52;15.93;;;9.60;;
7669;SDS011;3877;42.562;27.636;2023-01-16T11:10:19;13.93;;;9.17;;
7669;SDS011;3877;42.562;27.636;2023-01-16T11:12:46;15.57;;;8.37;;
7669;SDS011;3877;42.562;27.636;2023-01-16T11:15:32;18.13;;;9.57;;
7669;SDS011;3877;42.562;27.636;2023-01-16T11:18:20;30.20;;;16.50;;
7669;SDS011;3877;42.562;27.636;2023-01-16T11:20:57;33.00;;;15.47;;
7669;SDS011;3877;42.562;27.636;2023-01-16T11:23:24;17.63;;;10.60;;
7669;SDS011;3877;42.562;27.636;2023-01-16T11:25:52;15.43;;;10.13;;
7669;SDS011;3877;42.562;27.636;2023-01-16T11:28:20;15.57;;;10.90;;
7669;SDS011;3877;42.562;27.636;2023-01-16T11:30:50;19.90;;;10.17;;
7669;SDS011;3877;42.562;27.636;2023-01-16T11:33:19;19.90;;;11.53;;
7669;SDS011;3877;42.562;27.636;2023-01-16T11:35:51;14.27;;;9.10;;
7669;SDS011;3877;42.562;27.636;2023-01-16T11:38:20;18.77;;;10.10;;
7669;SDS011;3877;42.562;27.636;2023-01-16T11:40:47;12.50;;;7.73;;
7669;SDS011;3877;42.562;27.636;2023-01-16T11:43:15;14.77;;;9.17;;
7669;SDS011;3877;42.562;27.636;2023-01-16T11:46:06;19.13;;;8.97;;
7669;SDS011;3877;42.562;27.636;2023-01-16T11:48:38;13.83;;;9.23;;
7669;SDS011;3877;42.562;27.636;2023-01-16T11:51:05;16.27;;;8.90;;
7669;SDS011;3877;42.562;27.636;2023-01-16T11:53:34;15.30;;;9.03;;
7669;SDS011;3877;42.562;27.636;2023-01-16T11:56:05;15.57;;;9.77;;
7669;SDS011;3877;42.562;27.636;2023-01-16T11:58:39;20.70;;;10.57;;
7669;SDS011;3877;42.562;27.636;2023-01-16T12:01:11;23.60;;;9.90;;
7669;SDS011;3877;42.562;27.636;2023-01-16T12:03:52;17.57;;;10.03;;
7669;SDS011;3877;42.562;27.636;2023-01-16T12:06:29;16.50;;;10.43;;
7669;SDS011;3877;42.562;27.636;2023-01-16T12:11:58;14.23;;;9.90;;
7669;SDS011;3877;42.562;27.636;2023-01-16T12:14:55;17.13;;;10.57;;
7669;SDS011;3877;42.562;27.636;2023-01-16T12:17:25;20.80;;;10.53;;
7669;SDS011;3877;42.562;27.636;2023-01-16T12:22:49;15.67;;;10.47;;
7669;SDS011;3877;42.562;27.636;2023-01-16T12:25:24;12.53;;;8.60;;
7669;SDS011;3877;42.562;27.636;2023-01-16T12:27:55;11.07;;;8.60;;
7669;SDS011;3877;42.562;27.636;2023-01-16T12:30:25;12.33;;;8.63;;
7669;SDS011;3877;42.562;27.636;2023-01-16T12:33:01;22.97;;;13.53;;
7669;SDS011;3877;42.562;27.636;2023-01-16T12:35:47;14.50;;;9.87;;
7669;SDS011;3877;42.562;27.636;2023-01-16T12:38:17;16.93;;;9.20;;
7669;SDS011;3877;42.562;27.636;2023-01-16T12:40:52;12.37;;;9.30;;
7669;SDS011;3877;42.562;27.636;2023-01-16T12:43:45;13.30;;;10.00;;
7669;SDS011;3877;42.562;27.636;2023-01-16T12:46:13;19.10;;;12.73;;
7669;SDS011;3877;42.562;27.636;2023-01-16T12:48:49;20.70;;;11.47;;
7669;SDS011;3877;42.562;27.636;2023-01-16T12:51:34;29.40;;;19.30;;
7669;SDS011;3877;42.562;27.636;2023-01-16T12:54:12;40.90;;;24.63;;
7669;SDS011;3877;42.562;27.636;2023-01-16T12:56:44;35.37;;;20.77;;
7669;SDS011;3877;42.562;27.636;2023-01-16T12:59:13;51.27;;;36.90;;
7669;SDS011;3877;42.562;27.636;2023-01-16T13:01:43;14.83;;;10.97;;
7669;SDS011;3877;42.562;27.636;2023-01-16T13:04:15;22.23;;;15.40;;
7669;SDS011;3877;42.562;27.636;2023-01-16T13:06:45;33.83;;;19.03;;
7669;SDS011;3877;42.562;27.636;2023-01-16T13:09:14;14.73;;;11.47;;
7669;SDS011;3877;42.562;27.636;2023-01-16T13:11:47;17.73;;;10.20;;
7669;SDS011;3877;42.562;27.636;2023-01-16T13:14:31;18.00;;;10.87;;
7669;SDS011;3877;42.562;27.636;2023-01-16T13:16:59;18.73;;;13.20;;
7669;SDS011;3877;42.562;27.636;2023-01-16T13:19:29;19.23;;;11.17;;
7669;SDS011;3877;42.562;27.636;2023-01-16T13:21:59;17.60;;;11.83;;
7669;SDS011;3877;42.562;27.636;2023-01-16T13:24:30;15.20;;;10.17;;
7669;SDS011;3877;42.562;27.636;2023-01-16T13:26:59;18.47;;;10.80;;
7669;SDS011;3877;42.562;27.636;2023-01-16T13:29:28;15.10;;;10.33;;
7669;SDS011;3877;42.562;27.636;2023-01-16T13:31:56;17.63;;;10.23;;
7669;SDS011;3877;42.562;27.636;2023-01-16T13:34:26;13.47;;;9.30;;
7669;SDS011;3877;42.562;27.636;2023-01-16T13:37:02;16.77;;;10.30;;
7669;SDS011;3877;42.562;27.636;2023-01-16T13:42:19;17.27;;;9.33;;
7669;SDS011;3877;42.562;27.636;2023-01-16T13:44:48;16.33;;;9.33;;
7669;SDS011;3877;42.562;27.636;2023-01-16T13:47:35;15.23;;;10.10;;
7669;SDS011;3877;42.562;27.636;2023-01-16T13:50:06;22.37;;;11.67;;
7669;SDS011;3877;42.562;27.636;2023-01-16T13:52:34;27.03;;;12.23;;
7669;SDS011;3877;42.562;27.636;2023-01-16T13:55:02;16.93;;;10.40;;
7669;SDS011;3877;42.562;27.636;2023-01-16T13:57:33;11.27;;;8.10;;
7669;SDS011;3877;42.562;27.636;2023-01-16T14:00:00;13.73;;;8.20;;
7669;SDS011;3877;42.562;27.636;2023-01-16T14:02:41;10.27;;;8.33;;
7669;SDS011;3877;42.562;27.636;2023-01-16T14:05:15;14.70;;;9.50;;
7669;SDS011;3877;42.562;27.636;2023-01-16T14:07:49;21.10;;;13.17;;
7669;SDS011;3877;42.562;27.636;2023-01-16T14:10:38;21.73;;;15.93;;
7669;SDS011;3877;42.562;27.636;2023-01-16T14:13:12;35.60;;;24.73;;
7669;SDS011;3877;42.562;27.636;2023-01-16T14:15:50;59.57;;;42.13;;
7669;SDS011;3877;42.562;27.636;2023-01-16T14:18:38;20.07;;;14.00;;
7669;SDS011;3877;42.562;27.636;2023-01-16T14:21:09;13.57;;;10.13;;
7669;SDS011;3877;42.562;27.636;2023-01-16T14:23:38;15.37;;;10.80;;
7669;SDS011;3877;42.562;27.636;2023-01-16T14:26:23;18.83;;;13.23;;
7669;SDS011;3877;42.562;27.636;2023-01-16T14:28:55;13.23;;;8.97;;
7669;SDS011;3877;42.562;27.636;2023-01-16T14:31:24;13.80;;;9.50;;
7669;SDS011;3877;42.562;27.636;2023-01-16T14:33:53;12.97;;;8.90;;
7669;SDS011;3877;42.562;27.636;2023-01-16T14:36:21;10.97;;;8.90;;
7669;SDS011;3877;42.562;27.636;2023-01-16T14:38:50;14.67;;;8.70;;
7669;SDS011;3877;42.562;27.636;2023-01-16T14:41:20;14.23;;;9.53;;
7669;SDS011;3877;42.562;27.636;2023-01-16T14:44:12;15.63;;;9.77;;
7669;SDS011;3877;42.562;27.636;2023-01-16T14:47:05;19.43;;;11.37;;
7669;SDS011;3877;42.562;27.636;2023-01-16T14:49:58;12.27;;;9.70;;
7669;SDS011;3877;42.562;27.636;2023-01-16T14:52:57;16.03;;;10.40;;
7669;SDS011;3877;42.562;27.636;2023-01-16T14:55:45;15.13;;;11.13;;
7669;SDS011;3877;42.562;27.636;2023-01-16T14:58:13;22.97;;;11.20;;
7669;SDS011;3877;42.562;27.636;2023-01-16T15:00:42;13.33;;;11.60;;
7669;SDS011;3877;42.562;27.636;2023-01-16T15:03:09;12.90;;;10.83;;
7669;SDS011;3877;42.562;27.636;2023-01-16T15:05:39;16.87;;;11.73;;
7669;SDS011;3877;42.562;27.636;2023-01-16T15:08:18;17.40;;;12.07;;
7669;SDS011;3877;42.562;27.636;2023-01-16T15:10:47;17.17;;;12.33;;
7669;SDS011;3877;42.562;27.636;2023-01-16T15:13:19;17.23;;;12.47;;
7669;SDS011;3877;42.562;27.636;2023-01-16T15:15:47;21.40;;;13.37;;
7669;SDS011;3877;42.562;27.636;2023-01-16T15:18:16;25.70;;;13.87;;
7669;SDS011;3877;42.562;27.636;2023-01-16T15:21:01;16.47;;;12.40;;